Station: Victor Harbor

  Atmospheric Gas Attenuation - ITU Rec 676-11   --------------- db/100km ---------------
Date Time Temp RH % AH g/m3 Dew Point Wind Direction Speed kph Gust kph Barometer mB Rainfall Since 9am 24GHz 47GHz 76GHz 122GHz 134GHz 241GHz
27 09:00 11.9 83 8.79 9.1 6 1013.1 0.6 20.1 26.8 41.5 109.1 103.4 355.8
25 09:00 10.5 69 6.69 5 26 1013.1 9 15.7 23.8 33.8 88.3 77.2 263.9
24 09:00 11 85 8.51 8.6 6 1013.1 0.6 19.5 26.6 40.9 107.2 100.8 346.5
22 09:00 13.5 79 9.24 10 24 1013.1 9 21.0 27.0 42.6 111.8 107.4 369.8
21 09:00 15.3 65 8.49 8.8 26 1013.1 2 19.3 25.3 38.6 101.3 95.1 327.1
20 09:00 18.2 69 10.72 12.5 15 1013.1 0 23.9 28.0 46.0 121.0 120.4 415.9
19 09:00 18.9 79 12.8 15.3 4 1013.1 0 28.3 31.3 54.3 143.1 147.8 511.8
18 09:00 14.8 83 10.51 11.9 7 1013.1 2 23.6 28.8 47.1 124.0 122.9 424.2
17 09:00 13.5 89 10.41 11.8 6 1013.1 0.6 23.5 29.0 47.5 125.0 123.6 426.5
16 09:00 15.9 58 7.85 7.8 7 1013.1 0 17.9 24.1 35.9 94.0 86.3 296.3
15 09:00 13 68 7.71 7.2 7 1013.1 0.2 17.7 24.7 36.6 96.0 87.7 301.0
14 09:00 12.4 92 10.05 11.1 4 1013.1 0.4 22.8 28.8 46.6 122.6 120.2 414.7
13 09:00 13.4 72 8.37 8.4 13 1013.1 12 19.1 25.6 39.1 102.5 95.9 329.5
12 09:00 15.4 93 12.22 14.3 0 1013.1 0.4 27.3 31.5 54.2 142.8 146.2 505.9
11 09:00 22.1 52 10.15 12 9 1013.1 0 22.5 25.9 41.6 109.4 107.3 370.8
10 09:00 12.1 70 7.51 6.9 6 1013.1 0 17.3 24.6 36.3 95.0 86.1 295.3
09 09:00 12.8 75 8.4 8.6 17 1013.1 0 19.2 25.9 39.5 103.6 97.0 333.5
08 09:00 14.8 85 10.77 12.4 4 1013.1 0.4 24.2 29.2 48.2 127.0 126.5 437.0
07 09:00 21.6 35 6.64 5.8 17 1013.1 0 15.1 21.0 29.3 76.5 66.6 228.0
06 09:00 12.5 90 9.9 11 0 1013.1 0.1 22.4 28.5 45.9 120.7 118.0 406.7
05 09:00 12.4 89 9.73 10.7 6 1013.1 4 22.1 28.2 45.2 118.9 115.7 398.9
04 09:00 13 80 9.07 9.7 6 1013.1 0.4 20.6 26.9 42.1 110.6 105.7 364.1
03 09:00 13.9 78 9.35 10.1 11 1013.1 1 21.2 27.1 42.8 112.4 108.3 373.1
02 09:00 15.6 77 10.24 11.7 15 1013.1 0 23.0 28.0 45.5 119.7 117.9 406.9
01 09:00 12.1 71 7.61 7.1 2 1013.1 0.1 17.6 24.8 36.7 96.1 87.4 299.9
31 09:00 11.6 63 6.55 4.8 6 1013.1 1 15.3 23.3 32.8 85.6 74.4 254.0
30 09:00 13.4 82 9.53 10.5 11 1013.1 0.2 21.6 27.5 43.8 115.2 111.5 384.1
29 09:00 17.5 48 7.16 6.4 13 1013.1 0.1 16.4 22.7 32.6 85.4 76.2 261.3
28 09:00 12.1 87 9.33 10 2 1013.1 0.1 21.2 27.6 43.7 114.8 110.6 380.9
27 09:00 14.4 78 9.64 10.6 9 1013.1 0 21.8 27.4 43.7 114.9 111.5 384.5
26 09:00 9.5 91 8.29 8.1 0 1013.1 0.1 19.1 26.7 40.7 106.8 99.7 342.5
25 09:00 9.3 84 7.55 6.7 0 1013.1 1 17.5 25.5 37.7 98.9 89.8 307.9
24 09:00 8.1 83 6.91 5.4 2 1013.1 1 16.2 24.8 35.7 93.4 82.6 282.3
23 09:00 10 91 8.55 8.6 6 1013.1 7 19.7 26.9 41.5 109.1 102.7 352.9
22 09:00 9.4 81 7.33 6.4 11 1013.1 10 17.1 25.1 36.8 96.4 86.8 297.2
21 09:00 10 74 6.96 5.7 15 1013.1 2 16.2 24.3 35.0 91.7 81.2 277.8
20 09:00 10.1 91 8.61 8.7 6 1013.1 5 19.8 27.0 41.7 109.6 103.4 355.4
19 09:00 12.1 77 8.26 8.2 20 1013.1 15 18.9 25.8 39.3 103.0 96.0 329.9
18 09:00 12.9 75 8.45 8.7 19 1013.1 1 19.3 25.9 39.6 104.0 97.5 335.4
17 09:00 8.4 99 8.4 8.2 0 1013.1 0.1 19.4 27.2 41.8 109.6 102.7 352.8
16 09:00 11.2 90 9.12 9.6 4 1013.1 4 20.8 27.5 43.3 113.8 108.9 375.0
15 09:00 11 89 8.91 9.2 4 1013.1 0.2 20.4 27.2 42.5 111.7 106.3 365.8
14 09:00 13.3 85 9.82 10.8 6 1013.1 0.4 22.2 28.1 45.1 118.6 115.6 398.6
13 09:00 13.1 93 10.61 12 4 1013.1 3 23.9 29.5 48.6 127.9 127.1 438.7
12 09:00 13.5 85 9.94 11 9 1013.1 6 22.5 28.2 45.5 119.6 117.0 403.4
11 09:00 13.4 76 8.84 9.3 9 1013.1 0.1 20.1 26.4 41.0 107.6 102.1 351.4
10 09:00 9.5 96 8.74 8.9 0 1013.1 0.2 20.1 27.4 42.6 111.9 106.0 364.5
09 09:00 9.4 92 8.32 8.2 0 1013.1 2 19.2 26.7 40.9 107.3 100.3 344.4
08 09:00 10.9 86 8.56 8.7 15 1013.1 9 19.6 26.7 41.1 107.9 101.6 349.3
07 09:00 10.3 78 7.47 6.7 11 1013.1 0 17.3 25.1 36.9 96.8 87.6 300.3
06 09:00 6.5 97 7.28 6.1 0 1013.1 0 17.1 25.8 38.0 99.5 89.4 306.0
05 09:00 8.1 97 8.07 7.7 4 1013.1 0.1 18.7 26.7 40.5 106.3 98.5 337.9
04 09:00 10 62 5.83 3.1 7 1013.1 3 13.8 22.6 30.7 80.0 66.8 227.2
03 09:00 11.4 87 8.93 9.4 0 1013.1 0 20.4 27.2 42.4 111.4 106.0 364.9
02 09:00 10.5 92 8.92 9.3 0 1013.1 0 20.4 27.4 42.8 112.5 107.1 368.6
01 09:00 14 57 6.88 5.6 11 1013.1 0 15.9 23.1 33.0 86.4 76.2 260.7
31 09:00 8.6 95 8.17 7.8 0 1013.1 0.1 18.9 26.7 40.7 106.7 99.2 340.6
30 09:00 9.2 96 8.58 8.6 0 1013.1 0.4 19.8 27.2 42.1 110.5 104.2 358.0
29 09:00 10 74 6.96 5.7 6 1013.1 0.1 16.2 24.3 35.0 91.7 81.2 277.8
28 09:00 8.2 95 7.96 7.4 0 1013.1 0.1 18.5 26.5 40.0 104.9 96.8 332.1
27 09:00 13 68 7.71 7.3 13 1013.1 1 17.7 24.7 36.6 96.0 87.7 301.0
26 09:00 8.9 95 8.32 8.1 2 1013.1 0.1 19.2 26.9 41.1 108.0 100.9 346.6
25 09:00 8.8 93 8.1 7.8 0 1013.1 0.1 18.8 26.5 40.3 105.7 98.0 336.4
24 09:00 10.5 81 7.86 7.4 4 1013.1 0.1 18.2 25.6 38.4 100.7 92.6 317.7
23 09:00 9.3 88 7.91 7.4 0 1013.1 0 18.3 26.1 39.2 102.9 94.7 325.1
22 09:00 9.4 91 8.23 8 0 1013.1 0.1 19.0 26.6 40.5 106.3 99.0 340.0
21 09:00 8.9 95 8.32 8.1 0 1013.1 0.6 19.2 26.9 41.1 108.0 100.9 346.6
20 09:00 9.8 90 8.35 8.2 6 1013.1 3 19.2 26.7 40.8 107.1 100.2 344.1
19 09:00 12.2 90 9.71 10.7 17 1013.1 0.8 22.1 28.2 45.3 119.0 115.7 398.9
18 09:00 14.9 44 5.61 2.7 15 1013.1 0 13.2 21.1 28.1 73.2 60.2 204.8
17 09:00 7.3 97 7.67 6.9 0 1013.1 0.1 17.9 26.3 39.2 102.8 93.9 321.8
16 09:00 10.5 86 8.34 8.3 0 1013.1 0.1 19.2 26.4 40.4 106.0 99.1 340.5
15 09:00 7 97 7.52 6.6 0 1013.1 0.1 17.6 26.1 38.7 101.5 92.1 315.7
14 09:00 8.4 97 8.23 8 0 1013.1 0.1 19.1 26.9 41.0 107.7 100.3 344.5
13 09:00 9.5 95 8.65 8.7 0 1013.1 0.1 19.9 27.3 42.2 110.9 104.7 360.1
12 09:00 11.9 82 8.69 8.9 7 1013.1 5 19.9 26.6 41.1 108.0 102.1 351.0
11 09:00 9.3 90 8.09 7.8 2 1013.1 3 18.7 26.4 40.0 104.9 97.2 333.7
10 09:00 13 51 5.78 3.2 9 1013.1 0 13.6 21.7 29.4 76.6 63.7 216.8
09 09:00 7.3 95 7.51 6.6 0 1013.1 0 17.5 26.0 38.5 101.0 91.6 314.0
08 09:00 6.8 94 7.19 5.9 0 1013.1 0 16.9 25.6 37.4 98.1 87.8 300.5
07 09:00 10.9 68 6.77 5.3 0 1013.1 0 15.8 23.8 33.9 88.7 77.8 266.1
06 09:00 10.6 89 8.69 8.8 0 1013.1 0 19.9 27.0 41.8 109.8 103.8 357.0
05 09:00 11.4 90 9.24 9.8 2 1013.1 0.4 21.1 27.7 43.7 114.9 110.3 379.9
04 09:00 10.9 89 8.85 9.1 4 1013.1 2 20.3 27.2 42.3 111.2 105.6 363.3
03 09:00 11.6 89 9.25 9.8 7 1013.1 6 21.1 27.6 43.6 114.7 110.2 379.4
02 09:00 8.4 86 7.3 6.2 4 1013.1 11 17.0 25.3 37.1 97.3 87.5 299.6
01 09:00 13.2 44 5.05 1.4 11 1013.1 0 12.1 20.7 26.7 69.4 55.0 186.1
30 09:00 10.5 57 5.53 2.4 13 1013.1 0 13.2 22.0 29.3 76.5 62.7 212.8
29 09:00 4.9 97 6.55 4.4 0 1013.1 0.1 15.6 25.1 35.6 93.2 81.1 276.6
28 09:00 6.1 95 6.94 5.4 0 1013.1 0.1 16.4 25.4 36.7 96.1 85.1 291.0
27 09:00 7.5 93 7.45 6.4 0 1013.1 0.1 17.4 25.8 38.2 100.1 90.6 310.3
26 09:00 10.6 95 9.27 9.8 0 1013.1 0.1 21.2 28.0 44.3 116.4 111.9 385.4
25 09:00 12.2 83 8.96 9.5 6 1013.1 0.1 20.4 27.0 42.1 110.6 105.3 362.6
24 09:00 9.4 97 8.78 9 0 1013.1 0.8 20.2 27.5 42.8 112.5 106.7 367.0
23 09:00 11.5 94 9.71 10.5 6 1013.1 7 22.1 28.5 45.7 120.1 116.8 402.6
22 09:00 11.8 84 8.84 9.2 15 1013.1 9 20.2 26.9 41.8 109.8 104.2 358.7
21 09:00 12.5 76 8.36 8.5 15 1013.1 16 19.1 25.9 39.5 103.6 96.8 332.9
20 09:00 9 96 8.47 8.4 0 1013.1 7 19.5 27.1 41.7 109.6 102.9 353.6
19 09:00 16 45 6.13 4.3 19 1013.1 0 14.3 21.6 29.5 77.1 65.4 223.1
18 09:00 10.9 92 9.15 9.7 0 1013.1 0.1 20.9 27.7 43.6 114.6 109.8 378.0

Last Refresh: 27-Sep-2020 12:15:05

Most of the information presented on this site is sourced from the Bureau of Meteorology.  Copyright in all material sourced from the Bureau of Meteorology resides with the Commonwealth of Australia.